Time;durP1;ratioP1;P1;durP2;ratioP2;P2;SDS_P1;SDS_P2;PMS_P1;PMS_P2;Temp;Humidity;BMP_temperature;BMP_pressure;BME280_temperature;BME280_humidity;BME280_pressure;Samples;Min_cycle;Max_cycle;Signal;HPM_P1;HPM_P2
2023/12/26 00:02:19;;;;;;;5.15;2.22;;;;;;;;;;5116895;28;20377;-83
2023/12/26 00:04:45;;;;;;;5.18;2.10;;;;;;;;;;5116520;28;20384;-83
2023/12/26 00:07:11;;;;;;;4.50;2.30;;;;;;;;;;5116269;28;20430;-83
2023/12/26 00:09:40;;;;;;;5.07;2.50;;;;;;;;;;5116878;28;20969;-83
2023/12/26 00:12:07;;;;;;;5.50;2.07;;;;;;;;;;5108898;28;20407;-83
2023/12/26 00:14:33;;;;;;;4.22;2.15;;;;;;;;;;5097247;28;20390;-83
2023/12/26 00:16:59;;;;;;;3.13;1.80;;;;;;;;;;5096544;28;20385;-83
2023/12/26 00:19:25;;;;;;;4.05;2.10;;;;;;;;;;5097428;28;20370;-83
2023/12/26 00:21:51;;;;;;;3.17;1.95;;;;;;;;;;5096295;28;20389;-83
2023/12/26 00:24:17;;;;;;;5.57;2.03;;;;;;;;;;5096513;28;20836;-83
2023/12/26 00:26:43;;;;;;;3.63;2.10;;;;;;;;;;5100440;28;20369;-83
2023/12/26 00:29:09;;;;;;;3.63;2.25;;;;;;;;;;5116748;28;20372;-83
2023/12/26 00:31:35;;;;;;;4.10;2.30;;;;;;;;;;5116510;28;20481;-83
2023/12/26 00:34:01;;;;;;;3.23;2.10;;;;;;;;;;5117218;28;20410;-83
2023/12/26 00:36:27;;;;;;;4.38;2.47;;;;;;;;;;5116625;28;20391;-83
2023/12/26 00:38:53;;;;;;;3.73;1.90;;;;;;;;;;5116662;28;20435;-83
2023/12/26 00:41:19;;;;;;;3.83;2.03;;;;;;;;;;5116647;28;20398;-83
2023/12/26 00:43:45;;;;;;;3.60;2.22;;;;;;;;;;5116841;28;20392;-83
2023/12/26 00:46:11;;;;;;;3.85;2.17;;;;;;;;;;5116669;28;20841;-83
2023/12/26 00:48:37;;;;;;;4.82;2.38;;;;;;;;;;5116433;28;20826;-83
2023/12/26 00:51:04;;;;;;;5.22;2.80;;;;;;;;;;5116557;28;20419;-83
2023/12/26 00:53:30;;;;;;;3.95;2.00;;;;;;;;;;5116930;28;20440;-83
2023/12/26 00:55:56;;;;;;;5.10;2.28;;;;;;;;;;5116879;28;20880;-83
2023/12/26 00:58:22;;;;;;;4.22;2.42;;;;;;;;;;5116099;28;20459;-83
2023/12/26 01:00:48;;;;;;;4.05;2.78;;;;;;;;;;5116037;28;20398;-83
2023/12/26 01:03:15;;;;;;;6.85;3.10;;;;;;;;;;5116460;28;20376;-82
2023/12/26 01:05:41;;;;;;;5.40;3.13;;;;;;;;;;5116166;28;20861;-83
2023/12/26 01:08:11;;;;;;;8.03;2.83;;;;;;;;;;5116541;28;20384;-83
2023/12/26 01:10:37;;;;;;;5.95;2.70;;;;;;;;;;5117122;28;20401;-83
2023/12/26 01:13:03;;;;;;;7.13;2.50;;;;;;;;;;5116363;28;20365;-82
2023/12/26 01:15:29;;;;;;;6.35;2.70;;;;;;;;;;5116472;28;20365;-82
2023/12/26 01:17:56;;;;;;;4.43;2.42;;;;;;;;;;5116042;28;20868;-82
2023/12/26 01:20:21;;;;;;;5.07;2.35;;;;;;;;;;5116643;28;20372;-83
2023/12/26 01:22:47;;;;;;;4.45;2.28;;;;;;;;;;5116531;28;20406;-82
2023/12/26 01:25:14;;;;;;;5.87;2.23;;;;;;;;;;5116248;28;20384;-82
2023/12/26 01:27:40;;;;;;;5.68;2.50;;;;;;;;;;5115174;28;20376;-82
2023/12/26 01:30:06;;;;;;;3.53;2.20;;;;;;;;;;5116146;28;20396;-82
2023/12/26 01:32:32;;;;;;;4.43;2.10;;;;;;;;;;5116198;28;20383;-83
2023/12/26 01:34:58;;;;;;;4.88;2.10;;;;;;;;;;5116233;28;20368;-83
2023/12/26 01:37:24;;;;;;;3.53;2.27;;;;;;;;;;5115673;28;20881;-83
2023/12/26 01:39:51;;;;;;;4.88;2.05;;;;;;;;;;5118583;28;20380;-82
2023/12/26 01:42:17;;;;;;;5.10;2.10;;;;;;;;;;5118835;28;20853;-82
2023/12/26 01:44:43;;;;;;;3.63;2.10;;;;;;;;;;5119759;28;20457;-82
2023/12/26 01:47:10;;;;;;;4.03;2.00;;;;;;;;;;5120199;28;20833;-82
2023/12/26 01:49:36;;;;;;;3.13;1.80;;;;;;;;;;5120415;28;20419;-82
2023/12/26 01:52:04;;;;;;;4.68;2.33;;;;;;;;;;5119834;28;20380;-82
2023/12/26 01:54:31;;;;;;;3.80;2.17;;;;;;;;;;5119804;28;20368;-82
2023/12/26 01:56:57;;;;;;;4.78;2.30;;;;;;;;;;5119729;28;20369;-83
2023/12/26 01:59:23;;;;;;;4.18;2.10;;;;;;;;;;5101645;28;20372;-83
2023/12/26 02:01:49;;;;;;;4.55;1.95;;;;;;;;;;5119535;28;20373;-83
2023/12/26 02:04:16;;;;;;;3.72;1.85;;;;;;;;;;5119884;28;20376;-83
2023/12/26 02:06:42;;;;;;;5.57;1.90;;;;;;;;;;5119595;28;20858;-83
2023/12/26 02:09:11;;;;;;;4.80;2.08;;;;;;;;;;5119529;28;20379;-82
2023/12/26 02:11:38;;;;;;;5.25;2.10;;;;;;;;;;5101608;28;20425;-83
2023/12/26 02:14:05;;;;;;;3.80;1.77;;;;;;;;;;5099791;28;20370;-82
2023/12/26 02:16:35;;;;;;;4.72;1.88;;;;;;;;;;5099206;28;20370;-82
2023/12/26 02:19:01;;;;;;;3.50;1.98;;;;;;;;;;5099430;28;20374;-83
2023/12/26 02:21:27;;;;;;;2.78;1.70;;;;;;;;;;5099071;28;20378;-83
2023/12/26 02:23:56;;;;;;;4.82;1.88;;;;;;;;;;5111364;28;20763;-82
2023/12/26 02:26:23;;;;;;;4.82;1.98;;;;;;;;;;5118974;28;20407;-83
2023/12/26 02:28:50;;;;;;;4.63;2.22;;;;;;;;;;5119576;28;20383;-82
2023/12/26 02:31:16;;;;;;;4.47;1.90;;;;;;;;;;5119645;28;20411;-82
2023/12/26 02:33:46;;;;;;;4.17;1.77;;;;;;;;;;5119353;28;20421;-82
2023/12/26 02:36:12;;;;;;;4.40;1.80;;;;;;;;;;5119370;28;20429;-82
2023/12/26 02:38:38;;;;;;;5.38;2.15;;;;;;;;;;5119031;28;20384;-82
2023/12/26 02:41:05;;;;;;;4.85;1.77;;;;;;;;;;5119173;28;20854;-82
2023/12/26 02:43:32;;;;;;;5.60;2.20;;;;;;;;;;5118969;28;20387;-82
2023/12/26 02:45:58;;;;;;;4.33;1.90;;;;;;;;;;5119318;28;20392;-83
2023/12/26 02:48:25;;;;;;;5.15;1.80;;;;;;;;;;5119067;28;20838;-82
2023/12/26 02:50:52;;;;;;;4.50;1.97;;;;;;;;;;5118438;28;20415;-82
2023/12/26 02:53:18;;;;;;;3.60;1.80;;;;;;;;;;5118432;28;20451;-82
2023/12/26 02:55:44;;;;;;;3.90;1.80;;;;;;;;;;5119425;28;20365;-83
2023/12/26 02:58:10;;;;;;;3.38;1.63;;;;;;;;;;5119189;28;20733;-83
2023/12/26 03:00:36;;;;;;;4.43;1.95;;;;;;;;;;5118791;28;20452;-83
2023/12/26 03:03:02;;;;;;;5.88;1.73;;;;;;;;;;5119162;28;20789;-83
2023/12/26 03:05:28;;;;;;;3.10;1.70;;;;;;;;;;5118703;28;20732;-83
2023/12/26 03:07:54;;;;;;;3.10;1.85;;;;;;;;;;5118415;28;20422;-82
2023/12/26 03:10:20;;;;;;;3.57;1.60;;;;;;;;;;5118358;28;20453;-82
2023/12/26 03:12:46;;;;;;;3.45;1.80;;;;;;;;;;5118710;28;20435;-82
2023/12/26 03:15:12;;;;;;;4.43;1.85;;;;;;;;;;5118203;28;20396;-82
2023/12/26 03:17:38;;;;;;;4.25;1.90;;;;;;;;;;5118248;28;20373;-82
2023/12/26 03:20:05;;;;;;;3.90;2.03;;;;;;;;;;5118774;28;20384;-83
2023/12/26 03:22:31;;;;;;;4.75;1.95;;;;;;;;;;5118301;28;20372;-82
2023/12/26 03:24:57;;;;;;;4.63;1.80;;;;;;;;;;5118331;28;20767;-83
2023/12/26 03:27:24;;;;;;;4.55;2.03;;;;;;;;;;5118482;28;20443;-83
2023/12/26 03:29:50;;;;;;;4.65;1.88;;;;;;;;;;5118409;28;20404;-83
2023/12/26 03:32:20;;;;;;;3.28;1.60;;;;;;;;;;5118535;28;20380;-83
2023/12/26 03:34:46;;;;;;;2.30;1.58;;;;;;;;;;5118632;28;20768;-83
2023/12/26 03:37:12;;;;;;;3.55;1.70;;;;;;;;;;5118219;28;20726;-83
2023/12/26 03:39:41;;;;;;;5.13;1.80;;;;;;;;;;5117888;28;20376;-83
2023/12/26 03:42:07;;;;;;;3.65;1.52;;;;;;;;;;5118378;28;20394;-83
2023/12/26 03:44:33;;;;;;;2.97;1.45;;;;;;;;;;5117336;28;20456;-83
2023/12/26 03:46:59;;;;;;;2.70;1.50;;;;;;;;;;5117942;28;20411;-83
2023/12/26 03:49:25;;;;;;;3.85;1.83;;;;;;;;;;5117340;28;20464;-83
2023/12/26 03:51:51;;;;;;;5.00;1.55;;;;;;;;;;5118049;28;20427;-83
2023/12/26 03:54:18;;;;;;;2.45;1.50;;;;;;;;;;5117865;28;20365;-83
2023/12/26 03:56:44;;;;;;;4.82;1.98;;;;;;;;;;5117718;28;20956;-83
2023/12/26 03:59:10;;;;;;;3.13;1.95;;;;;;;;;;5117578;28;20425;-83
2023/12/26 04:01:36;;;;;;;4.67;1.70;;;;;;;;;;5117277;28;20372;-83
2023/12/26 04:04:03;;;;;;;3.63;1.63;;;;;;;;;;5117927;28;20401;-83
2023/12/26 04:06:29;;;;;;;3.50;1.60;;;;;;;;;;5099573;28;20863;-83
2023/12/26 04:08:55;;;;;;;4.07;1.77;;;;;;;;;;5097160;28;20534;-83
2023/12/26 04:11:21;;;;;;;4.60;1.60;;;;;;;;;;5096901;28;20482;-83
2023/12/26 04:13:47;;;;;;;5.90;1.98;;;;;;;;;;5097964;28;20378;-82
2023/12/26 04:16:15;;;;;;;3.53;1.73;;;;;;;;;;5117403;28;20373;-83
2023/12/26 04:18:41;;;;;;;3.67;1.63;;;;;;;;;;5117499;28;20377;-83
2023/12/26 04:21:07;;;;;;;3.53;1.60;;;;;;;;;;5118448;28;20384;-83
2023/12/26 04:23:33;;;;;;;3.03;1.70;;;;;;;;;;5117680;28;20826;-83
2023/12/26 04:25:59;;;;;;;4.40;1.60;;;;;;;;;;5117012;28;20413;-83
2023/12/26 04:28:25;;;;;;;3.70;1.70;;;;;;;;;;5117123;28;20384;-83
2023/12/26 04:30:51;;;;;;;3.28;1.90;;;;;;;;;;5116936;28;20792;-83
2023/12/26 04:33:17;;;;;;;3.60;1.85;;;;;;;;;;5116874;28;20381;-83
2023/12/26 04:35:43;;;;;;;3.17;1.60;;;;;;;;;;5116962;28;20857;-83
2023/12/26 04:38:10;;;;;;;7.80;1.90;;;;;;;;;;5117010;28;20841;-83
2023/12/26 04:40:36;;;;;;;4.43;1.98;;;;;;;;;;5116948;28;20459;-83
2023/12/26 04:43:02;;;;;;;4.75;1.83;;;;;;;;;;5116421;28;20853;-83
2023/12/26 04:45:29;;;;;;;3.80;1.77;;;;;;;;;;5117185;28;20845;-83
2023/12/26 04:47:55;;;;;;;4.93;1.55;;;;;;;;;;5117117;28;20412;-83
2023/12/26 04:50:21;;;;;;;2.90;1.57;;;;;;;;;;5116491;28;20404;-83
2023/12/26 04:52:47;;;;;;;3.42;1.52;;;;;;;;;;5116728;28;20396;-83
2023/12/26 04:55:13;;;;;;;3.95;1.67;;;;;;;;;;5116819;28;20383;-83
2023/12/26 04:57:39;;;;;;;6.05;1.40;;;;;;;;;;5116579;28;20364;-83
2023/12/26 05:00:05;;;;;;;3.67;1.60;;;;;;;;;;5116251;28;20466;-83
2023/12/26 05:02:31;;;;;;;2.13;1.50;;;;;;;;;;5116467;28;20376;-83
2023/12/26 05:04:57;;;;;;;3.78;1.60;;;;;;;;;;5116058;28;20372;-83
2023/12/26 05:07:23;;;;;;;4.15;1.67;;;;;;;;;;5115155;28;21126;-83
2023/12/26 05:09:49;;;;;;;2.92;1.50;;;;;;;;;;5116307;28;20404;-83
2023/12/26 05:12:15;;;;;;;3.67;1.40;;;;;;;;;;5116076;28;20383;-83
2023/12/26 05:14:41;;;;;;;4.35;1.70;;;;;;;;;;5116311;28;20461;-83
2023/12/26 05:17:07;;;;;;;3.50;1.40;;;;;;;;;;5116280;28;20451;-83
2023/12/26 05:19:33;;;;;;;4.43;1.50;;;;;;;;;;5116854;28;20457;-83
2023/12/26 05:21:59;;;;;;;3.53;1.35;;;;;;;;;;5116501;28;20368;-83
2023/12/26 05:24:25;;;;;;;2.17;1.15;;;;;;;;;;5116262;28;20380;-83
2023/12/26 05:26:51;;;;;;;2.80;1.50;;;;;;;;;;5116593;28;20691;-83
2023/12/26 05:29:17;;;;;;;3.30;1.77;;;;;;;;;;5116157;28;20422;-83
2023/12/26 05:31:44;;;;;;;3.20;1.60;;;;;;;;;;5116347;28;20404;-83
2023/12/26 05:34:10;;;;;;;3.22;1.33;;;;;;;;;;5097843;28;20391;-83
2023/12/26 05:36:36;;;;;;;4.75;1.27;;;;;;;;;;5115928;28;20372;-83
2023/12/26 05:39:03;;;;;;;3.47;1.40;;;;;;;;;;5116721;28;20361;-83
2023/12/26 05:41:29;;;;;;;4.43;1.50;;;;;;;;;;5116229;28;20376;-83
2023/12/26 05:43:55;;;;;;;2.67;1.20;;;;;;;;;;5115806;28;20380;-83
2023/12/26 05:46:23;;;;;;;2.65;1.30;;;;;;;;;;5115849;28;20380;-83
2023/12/26 05:48:49;;;;;;;3.10;1.48;;;;;;;;;;5116561;28;20396;-83
2023/12/26 05:51:15;;;;;;;2.83;1.30;;;;;;;;;;5116162;28;20404;-83
2023/12/26 05:53:41;;;;;;;3.50;1.40;;;;;;;;;;5116339;28;20368;-83
2023/12/26 05:56:07;;;;;;;3.30;1.35;;;;;;;;;;5098428;28;20383;-83
2023/12/26 05:58:34;;;;;;;2.15;1.40;;;;;;;;;;5116339;28;20373;-83
2023/12/26 06:01:01;;;;;;;3.10;1.40;;;;;;;;;;5115411;28;20835;-83
2023/12/26 06:03:27;;;;;;;3.13;1.60;;;;;;;;;;5113768;28;20406;-83
2023/12/26 06:05:53;;;;;;;2.65;1.30;;;;;;;;;;5116680;28;20385;-83
2023/12/26 06:08:19;;;;;;;2.72;1.50;;;;;;;;;;5115699;28;20380;-83
2023/12/26 06:10:45;;;;;;;4.17;1.57;;;;;;;;;;5115354;28;20457;-83
2023/12/26 06:13:11;;;;;;;2.65;1.50;;;;;;;;;;5115840;28;20403;-83
2023/12/26 06:15:37;;;;;;;3.33;1.50;;;;;;;;;;5115689;28;20368;-83
2023/12/26 06:18:03;;;;;;;3.22;1.58;;;;;;;;;;5115698;28;20846;-83
2023/12/26 06:20:29;;;;;;;3.50;1.60;;;;;;;;;;5115259;28;20384;-83
2023/12/26 06:22:55;;;;;;;2.57;1.40;;;;;;;;;;5115956;28;20383;-83
2023/12/26 06:25:21;;;;;;;2.28;1.23;;;;;;;;;;5115817;28;20383;-83
2023/12/26 06:27:48;;;;;;;4.10;1.30;;;;;;;;;;5119516;28;20373;-83
2023/12/26 06:30:14;;;;;;;1.70;1.30;;;;;;;;;;5119670;28;20430;-83
2023/12/26 06:32:40;;;;;;;2.73;1.43;;;;;;;;;;5119196;28;20376;-83
2023/12/26 06:35:06;;;;;;;3.97;1.30;;;;;;;;;;5119159;28;20805;-83
2023/12/26 06:37:32;;;;;;;3.87;2.00;;;;;;;;;;5119371;28;20369;-83
2023/12/26 06:39:58;;;;;;;2.65;1.60;;;;;;;;;;5119571;28;20826;-83
2023/12/26 06:42:24;;;;;;;3.28;1.42;;;;;;;;;;5101756;28;20422;-83
2023/12/26 06:44:51;;;;;;;3.95;1.30;;;;;;;;;;5119475;28;20376;-83
2023/12/26 06:47:17;;;;;;;1.40;1.15;;;;;;;;;;5118555;28;20385;-83
2023/12/26 06:49:46;;;;;;;2.80;1.33;;;;;;;;;;5118997;28;20471;-83
2023/12/26 06:52:14;;;;;;;3.92;1.35;;;;;;;;;;5101160;28;20369;-83
2023/12/26 06:54:41;;;;;;;3.00;1.15;;;;;;;;;;5119069;28;20404;-83
2023/12/26 06:57:08;;;;;;;3.10;1.52;;;;;;;;;;5118596;28;20396;-83
2023/12/26 06:59:34;;;;;;;3.88;1.30;;;;;;;;;;5118820;28;20434;-83
2023/12/26 07:02:00;;;;;;;2.80;1.30;;;;;;;;;;5118694;28;20379;-83
2023/12/26 07:04:27;;;;;;;2.72;1.40;;;;;;;;;;5118506;28;20383;-83
2023/12/26 07:06:53;;;;;;;3.08;1.30;;;;;;;;;;5118989;28;20480;-83
2023/12/26 07:09:19;;;;;;;2.50;1.48;;;;;;;;;;5118584;28;20405;-83
2023/12/26 07:11:45;;;;;;;4.45;1.60;;;;;;;;;;5118660;28;20872;-83
2023/12/26 07:14:11;;;;;;;3.85;1.45;;;;;;;;;;5119620;28;20459;-83
2023/12/26 07:16:37;;;;;;;2.65;1.38;;;;;;;;;;5118996;28;20379;-83
2023/12/26 07:19:03;;;;;;;3.92;1.50;;;;;;;;;;5118754;28;20454;-83
2023/12/26 07:21:29;;;;;;;2.83;1.58;;;;;;;;;;5118375;28;20379;-83
2023/12/26 07:23:55;;;;;;;3.10;1.30;;;;;;;;;;5118600;28;20772;-83
2023/12/26 07:26:22;;;;;;;2.75;1.33;;;;;;;;;;5118650;28;20380;-83
2023/12/26 07:28:48;;;;;;;4.10;1.60;;;;;;;;;;5118181;28;20369;-83
2023/12/26 07:31:19;;;;;;;4.10;1.60;;;;;;;;;;5118318;28;20955;-83
2023/12/26 07:33:46;;;;;;;2.85;1.30;;;;;;;;;;5118765;28;20513;-83
2023/12/26 07:36:13;;;;;;;3.60;1.50;;;;;;;;;;5117866;28;20451;-83
2023/12/26 07:38:39;;;;;;;3.50;1.50;;;;;;;;;;5118280;28;20408;-83
2023/12/26 07:41:05;;;;;;;2.58;1.38;;;;;;;;;;5118429;28;20380;-83
2023/12/26 07:43:31;;;;;;;2.88;1.40;;;;;;;;;;5117840;28;20380;-83
2023/12/26 07:45:57;;;;;;;3.22;1.63;;;;;;;;;;5118266;28;20377;-83
2023/12/26 07:48:23;;;;;;;4.60;1.90;;;;;;;;;;5117325;28;20939;-83
2023/12/26 07:50:49;;;;;;;6.35;1.55;;;;;;;;;;5118513;28;20404;-83
2023/12/26 07:53:15;;;;;;;3.38;1.42;;;;;;;;;;5118211;28;20376;-83
2023/12/26 07:55:41;;;;;;;2.72;1.60;;;;;;;;;;5118435;28;20369;-84
2023/12/26 07:58:08;;;;;;;5.30;1.80;;;;;;;;;;5118136;28;20372;-83
2023/12/26 08:00:34;;;;;;;3.65;1.45;;;;;;;;;;5117656;28;20377;-83
2023/12/26 08:03:00;;;;;;;3.63;1.70;;;;;;;;;;5117836;28;20834;-84
2023/12/26 08:05:26;;;;;;;3.30;1.85;;;;;;;;;;5117832;28;20385;-84
2023/12/26 08:07:52;;;;;;;3.30;1.50;;;;;;;;;;5113874;28;20379;-83
2023/12/26 08:10:18;;;;;;;7.13;1.90;;;;;;;;;;5117892;28;20483;-83
2023/12/26 08:12:44;;;;;;;3.88;1.48;;;;;;;;;;5118169;28;20372;-83
2023/12/26 08:15:10;;;;;;;5.00;1.80;;;;;;;;;;5117877;28;20776;-83
2023/12/26 08:17:36;;;;;;;3.95;1.52;;;;;;;;;;5117809;28;20383;-83
2023/12/26 08:20:04;;;;;;;6.25;1.88;;;;;;;;;;5117517;28;20376;-83
2023/12/26 08:22:30;;;;;;;5.05;1.73;;;;;;;;;;5117063;28;20376;-83
2023/12/26 08:24:56;;;;;;;7.70;1.95;;;;;;;;;;5117677;28;20856;-83
2023/12/26 08:27:23;;;;;;;3.25;1.45;;;;;;;;;;5117175;28;20426;-83
2023/12/26 08:29:49;;;;;;;4.07;1.60;;;;;;;;;;5117799;28;20384;-83
2023/12/26 08:32:16;;;;;;;7.68;1.90;;;;;;;;;;5117586;28;20387;-84
2023/12/26 08:34:44;;;;;;;4.30;1.77;;;;;;;;;;5117128;28;20422;-83
2023/12/26 08:37:11;;;;;;;5.45;1.80;;;;;;;;;;5117107;28;20372;-83
2023/12/26 08:39:37;;;;;;;4.03;1.60;;;;;;;;;;5116610;28;20376;-83
2023/12/26 08:42:04;;;;;;;4.65;1.80;;;;;;;;;;5117394;28;20384;-83
2023/12/26 08:44:30;;;;;;;4.20;1.58;;;;;;;;;;5117165;28;20369;-84
2023/12/26 08:46:56;;;;;;;4.80;1.67;;;;;;;;;;5116730;28;20865;-83
2023/12/26 08:49:22;;;;;;;5.28;1.55;;;;;;;;;;5115804;28;20409;-83
2023/12/26 08:51:48;;;;;;;6.72;2.05;;;;;;;;;;5116794;28;20411;-83
2023/12/26 08:54:14;;;;;;;3.13;1.70;;;;;;;;;;5117216;28;20376;-84
2023/12/26 08:56:41;;;;;;;3.55;1.35;;;;;;;;;;5117026;28;20372;-84
2023/12/26 08:59:08;;;;;;;3.90;1.83;;;;;;;;;;5116856;28;20396;-84
2023/12/26 09:01:35;;;;;;;3.72;1.73;;;;;;;;;;5116837;28;20400;-84
2023/12/26 09:04:01;;;;;;;3.03;1.80;;;;;;;;;;5117156;28;20380;-83
2023/12/26 09:06:27;;;;;;;3.20;1.63;;;;;;;;;;5116790;28;20384;-84
2023/12/26 09:08:53;;;;;;;5.10;2.47;;;;;;;;;;5117018;28;20372;-84
2023/12/26 09:11:19;;;;;;;5.53;2.45;;;;;;;;;;5117347;28;20503;-84
2023/12/26 09:13:45;;;;;;;4.43;1.90;;;;;;;;;;5117516;28;20408;-84
2023/12/26 09:16:12;;;;;;;5.00;2.28;;;;;;;;;;5116801;28;20375;-84
2023/12/26 09:18:39;;;;;;;4.95;2.03;;;;;;;;;;5117961;28;20377;-84
2023/12/26 09:21:05;;;;;;;5.88;2.20;;;;;;;;;;5117378;28;20437;-84
2023/12/26 09:23:31;;;;;;;3.67;2.00;;;;;;;;;;5116635;28;20386;-84
2023/12/26 09:25:57;;;;;;;5.15;1.80;;;;;;;;;;5116253;28;20429;-84
2023/12/26 09:28:23;;;;;;;5.30;2.40;;;;;;;;;;5116150;28;20381;-84
2023/12/26 09:30:49;;;;;;;4.78;1.80;;;;;;;;;;5116734;28;20684;-83
2023/12/26 09:33:15;;;;;;;3.88;1.70;;;;;;;;;;5117324;28;20982;-84
2023/12/26 09:35:42;;;;;;;4.07;1.77;;;;;;;;;;5116148;28;20467;-84
2023/12/26 09:38:08;;;;;;;7.50;1.92;;;;;;;;;;5116092;28;20368;-84
2023/12/26 09:40:34;;;;;;;2.72;1.75;;;;;;;;;;5116971;28;20373;-84
2023/12/26 09:43:02;;;;;;;5.83;2.00;;;;;;;;;;5116634;28;20820;-84
2023/12/26 09:45:28;;;;;;;3.55;1.35;;;;;;;;;;5116314;28;20389;-84
2023/12/26 09:47:55;;;;;;;4.27;1.57;;;;;;;;;;5116860;28;20461;-84
2023/12/26 09:50:21;;;;;;;3.50;1.48;;;;;;;;;;5116813;28;20434;-84
2023/12/26 09:53:13;;;;;;;4.32;1.60;;;;;;;;;;5116566;28;20368;-84
2023/12/26 09:55:39;;;;;;;4.00;1.55;;;;;;;;;;5112175;28;20389;-83
2023/12/26 09:58:05;;;;;;;3.53;1.63;;;;;;;;;;5116864;28;20368;-84
2023/12/26 10:00:32;;;;;;;3.30;1.70;;;;;;;;;;5118417;28;20459;-84
2023/12/26 10:02:58;;;;;;;5.38;1.92;;;;;;;;;;5120022;28;20388;-84
2023/12/26 10:05:24;;;;;;;3.95;1.80;;;;;;;;;;5102067;28;20457;-84
2023/12/26 10:07:50;;;;;;;6.00;1.83;;;;;;;;;;5120125;28;20463;-84
2023/12/26 10:10:20;;;;;;;5.05;2.60;;;;;;;;;;5120374;28;20428;-84
2023/12/26 10:12:49;;;;;;;4.28;2.00;;;;;;;;;;5120402;28;20383;-84
2023/12/26 10:15:15;;;;;;;3.90;1.80;;;;;;;;;;5120608;28;20415;-84
2023/12/26 10:17:44;;;;;;;3.65;1.73;;;;;;;;;;5120486;28;20372;-84
2023/12/26 10:20:12;;;;;;;4.47;1.58;;;;;;;;;;5120331;28;20383;-84
2023/12/26 10:22:41;;;;;;;3.70;1.60;;;;;;;;;;5119720;28;20471;-84
2023/12/26 10:25:07;;;;;;;3.08;1.40;;;;;;;;;;5119873;28;20429;-84
2023/12/26 10:27:33;;;;;;;5.38;2.10;;;;;;;;;;5119664;28;20388;-84
2023/12/26 10:29:59;;;;;;;3.00;1.70;;;;;;;;;;5120559;28;20411;-84
2023/12/26 10:32:25;;;;;;;3.25;1.60;;;;;;;;;;5119383;28;20396;-84
2023/12/26 10:34:52;;;;;;;4.22;1.80;;;;;;;;;;5119622;28;20451;-84
2023/12/26 10:37:25;;;;;;;6.20;2.10;;;;;;;;;;5119124;28;20373;-84
2023/12/26 10:39:51;;;;;;;5.78;1.73;;;;;;;;;;5120116;28;20729;-84
2023/12/26 10:42:17;;;;;;;3.45;1.70;;;;;;;;;;5119383;28;20380;-84
2023/12/26 10:45:05;;;;;;;4.67;1.80;;;;;;;;;;5119539;28;20398;-84
2023/12/26 10:47:32;;;;;;;5.53;2.35;;;;;;;;;;5119648;28;20392;-84
2023/12/26 10:50:00;;;;;;;5.25;2.10;;;;;;;;;;5119242;28;20422;-84
2023/12/26 10:52:29;;;;;;;5.35;2.00;;;;;;;;;;5101055;28;20380;-84
2023/12/26 10:55:00;;;;;;;5.43;2.10;;;;;;;;;;5119413;28;20833;-84
2023/12/26 10:57:26;;;;;;;4.70;1.95;;;;;;;;;;5118990;28;20388;-84
2023/12/26 13:51:57;;;;;;;2.88;1.30;;;;;;;;;;5079071;28;20803;-82
2023/12/26 13:54:42;;;;;;;4.72;1.30;;;;;;;;;;5060102;28;20379;-82
2023/12/26 13:57:26;;;;;;;4.88;1.42;;;;;;;;;;5079134;28;20407;-82
2023/12/26 14:00:12;;;;;;;3.78;1.38;;;;;;;;;;5079451;28;20372;-82
2023/12/26 14:02:57;;;;;;;4.43;1.30;;;;;;;;;;5078521;28;20386;-82
2023/12/26 14:05:42;;;;;;;3.08;1.33;;;;;;;;;;5078168;28;20386;-82
2023/12/26 14:08:26;;;;;;;3.65;1.40;;;;;;;;;;5070166;28;20398;-82
2023/12/26 14:11:11;;;;;;;4.55;1.50;;;;;;;;;;5099769;28;20928;-83
2023/12/26 14:13:56;;;;;;;5.45;1.60;;;;;;;;;;5099026;28;20374;-82
2023/12/26 14:16:40;;;;;;;2.88;1.20;;;;;;;;;;5099021;28;20370;-82
2023/12/26 14:19:25;;;;;;;5.00;1.48;;;;;;;;;;5099246;28;20457;-82
2023/12/26 14:22:09;;;;;;;3.67;1.20;;;;;;;;;;5098823;28;20390;-83
2023/12/26 14:24:54;;;;;;;3.03;1.15;;;;;;;;;;5081081;28;20375;-82
2023/12/26 14:27:38;;;;;;;3.92;1.40;;;;;;;;;;5099019;28;20926;-82
2023/12/26 14:30:23;;;;;;;4.72;1.20;;;;;;;;;;5098363;28;20466;-82
2023/12/26 14:33:08;;;;;;;5.53;1.38;;;;;;;;;;5098391;28;20854;-82
2023/12/26 14:35:52;;;;;;;4.18;1.45;;;;;;;;;;5099732;28;20900;-82
2023/12/26 14:38:37;;;;;;;4.22;1.40;;;;;;;;;;5099188;28;20412;-83
2023/12/26 14:41:21;;;;;;;4.85;1.35;;;;;;;;;;5099396;28;20418;-82
2023/12/26 14:44:06;;;;;;;4.97;1.20;;;;;;;;;;5098595;28;20907;-82
2023/12/26 14:46:50;;;;;;;4.28;1.15;;;;;;;;;;5097324;28;20739;-82
2023/12/26 14:49:35;;;;;;;3.63;1.20;;;;;;;;;;5098483;28;20460;-82
2023/12/26 14:52:20;;;;;;;4.80;1.20;;;;;;;;;;5094572;28;20725;-83
2023/12/26 14:55:05;;;;;;;4.85;1.50;;;;;;;;;;5074510;28;20412;-81
2023/12/26 14:57:49;;;;;;;3.22;1.38;;;;;;;;;;5077624;28;20375;-82
2023/12/26 15:00:34;;;;;;;4.20;1.30;;;;;;;;;;5059957;28;20857;-81
2023/12/26 15:03:02;;;;;;;3.25;1.40;;;;;;;;;;5078485;28;20380;-82
2023/12/26 15:05:33;;;;;;;4.63;1.48;;;;;;;;;;5078233;28;20380;-81
2023/12/26 15:07:59;;;;;;;3.92;1.42;;;;;;;;;;5078362;28;20383;-82
2023/12/26 15:10:25;;;;;;;3.50;1.50;;;;;;;;;;5078439;28;20881;-81
2023/12/26 15:12:51;;;;;;;4.60;1.45;;;;;;;;;;5077889;28;20411;-82
2023/12/26 15:15:17;;;;;;;3.72;1.65;;;;;;;;;;5078087;28;20459;-83
2023/12/26 15:17:43;;;;;;;4.30;1.40;;;;;;;;;;5077282;28;20865;-81
2023/12/26 15:20:10;;;;;;;3.08;1.30;;;;;;;;;;5077625;28;20376;-81
2023/12/26 15:22:36;;;;;;;5.57;1.40;;;;;;;;;;5077202;28;20383;-82
2023/12/26 15:25:03;;;;;;;4.07;1.10;;;;;;;;;;5077092;28;20384;-82
2023/12/26 15:27:29;;;;;;;4.40;1.42;;;;;;;;;;5077716;28;20372;-81
2023/12/26 15:29:55;;;;;;;4.45;2.05;;;;;;;;;;5077383;28;20721;-81
2023/12/26 15:32:21;;;;;;;4.70;2.08;;;;;;;;;;5077861;28;20478;-82
2023/12/26 15:34:47;;;;;;;4.32;1.40;;;;;;;;;;5077163;28;20375;-81
2023/12/26 15:37:13;;;;;;;4.82;1.60;;;;;;;;;;5077205;28;20781;-81
2023/12/26 15:39:40;;;;;;;4.07;1.48;;;;;;;;;;5076056;28;20837;-82
2023/12/26 15:42:07;;;;;;;4.33;1.57;;;;;;;;;;5075703;28;20488;-81
2023/12/26 15:44:33;;;;;;;3.35;1.35;;;;;;;;;;5075481;28;20505;-81
2023/12/26 15:46:59;;;;;;;5.77;1.63;;;;;;;;;;5076007;28;20483;-83
2023/12/26 15:49:25;;;;;;;5.32;2.10;;;;;;;;;;5076118;28;20459;-81
2023/12/26 15:51:51;;;;;;;4.80;1.90;;;;;;;;;;5076408;28;20495;-82
2023/12/26 15:54:17;;;;;;;6.70;2.60;;;;;;;;;;5076582;28;20388;-81
2023/12/26 15:56:44;;;;;;;4.53;2.53;;;;;;;;;;5075988;28;20426;-81
2023/12/26 15:59:10;;;;;;;5.28;2.40;;;;;;;;;;5076541;28;20380;-81
2023/12/26 16:01:36;;;;;;;4.25;2.03;;;;;;;;;;5076374;28;20409;-82
2023/12/26 16:04:02;;;;;;;4.32;1.90;;;;;;;;;;5075699;28;20384;-82
2023/12/26 16:06:28;;;;;;;3.65;1.40;;;;;;;;;;5076049;28;20380;-81
2023/12/26 16:08:57;;;;;;;4.88;1.70;;;;;;;;;;5075930;28;20428;-82
2023/12/26 16:11:23;;;;;;;5.78;1.98;;;;;;;;;;5074368;28;20885;-81
2023/12/26 16:13:49;;;;;;;5.30;2.67;;;;;;;;;;5075769;28;20372;-81
2023/12/26 16:16:15;;;;;;;4.22;2.50;;;;;;;;;;5085168;28;21182;-81
2023/12/26 16:18:42;;;;;;;4.90;2.70;;;;;;;;;;5095935;28;20374;-82
2023/12/26 16:21:08;;;;;;;4.47;2.03;;;;;;;;;;5096583;28;20874;-82
2023/12/26 16:23:34;;;;;;;4.45;2.05;;;;;;;;;;5095007;28;20384;-81
2023/12/26 16:26:07;;;;;;;4.03;2.10;;;;;;;;;;5095302;28;20378;-81
2023/12/26 16:28:36;;;;;;;5.53;1.80;;;;;;;;;;5095929;28;20859;-81
2023/12/26 16:31:02;;;;;;;3.08;1.70;;;;;;;;;;5096049;28;20473;-81
2023/12/26 16:33:28;;;;;;;4.30;1.83;;;;;;;;;;5095627;28;20386;-82
2023/12/26 16:35:54;;;;;;;6.85;1.90;;;;;;;;;;5096246;28;20370;-82
2023/12/26 16:38:23;;;;;;;4.70;1.75;;;;;;;;;;5095172;28;20370;-81
2023/12/26 16:40:49;;;;;;;4.63;2.20;;;;;;;;;;5095081;28;20720;-81
2023/12/26 16:43:15;;;;;;;5.32;2.67;;;;;;;;;;5094395;28;20370;-81
2023/12/26 16:45:42;;;;;;;6.13;2.40;;;;;;;;;;5094498;28;20864;-81
2023/12/26 16:48:09;;;;;;;6.72;2.53;;;;;;;;;;5094889;28;20385;-82
2023/12/26 16:50:35;;;;;;;4.00;1.73;;;;;;;;;;5094803;28;20495;-82
2023/12/26 16:53:01;;;;;;;9.68;4.93;;;;;;;;;;5094701;28;20380;-81
2023/12/26 16:55:27;;;;;;;4.63;2.05;;;;;;;;;;5095677;28;20388;-82
2023/12/26 16:57:53;;;;;;;4.18;1.52;;;;;;;;;;5095499;28;20371;-81
2023/12/26 17:00:22;;;;;;;4.20;1.50;;;;;;;;;;5095480;28;20386;-81
2023/12/26 17:02:48;;;;;;;3.25;1.60;;;;;;;;;;5095033;28;20373;-81
2023/12/26 17:05:14;;;;;;;3.13;1.50;;;;;;;;;;5095120;28;20410;-82
2023/12/26 17:07:42;;;;;;;5.57;1.50;;;;;;;;;;5094172;28;20439;-82
2023/12/26 17:10:08;;;;;;;5.17;1.60;;;;;;;;;;5093789;28;20428;-81
2023/12/26 17:12:34;;;;;;;4.45;1.40;;;;;;;;;;5094419;28;20388;-82
2023/12/26 17:15:01;;;;;;;3.80;1.55;;;;;;;;;;5095034;28;20465;-81
2023/12/26 17:17:27;;;;;;;4.78;1.80;;;;;;;;;;5094913;28;20374;-81
2023/12/26 17:19:53;;;;;;;2.70;1.38;;;;;;;;;;5094554;28;20829;-81
2023/12/26 17:22:19;;;;;;;2.40;1.30;;;;;;;;;;5095697;28;20378;-82
2023/12/26 17:24:45;;;;;;;2.88;1.35;;;;;;;;;;5097017;28;20947;-82
2023/12/26 17:27:11;;;;;;;4.85;1.60;;;;;;;;;;5080587;28;20882;-83
2023/12/26 17:29:37;;;;;;;4.07;1.50;;;;;;;;;;5076531;28;20391;-81
2023/12/26 17:32:03;;;;;;;4.45;1.67;;;;;;;;;;5076358;28;20400;-82
2023/12/26 17:34:29;;;;;;;4.18;2.10;;;;;;;;;;5075578;28;20426;-81
2023/12/26 17:36:55;;;;;;;4.93;1.90;;;;;;;;;;5077614;28;20387;-83
2023/12/26 17:39:21;;;;;;;4.95;2.13;;;;;;;;;;5078768;28;20842;-82